NCAR-RAP Real-Time Weather Data

Output produced by METARs form (14 October 2019  22:33 UTC)
found at http://weather.rap.ucar.edu/surface/
 
KAVP 142154Z 27009KT 10SM FEW065 18/05 A2996 RMK AO2 SLP143 T01780050
KAVP 142054Z 27011G18KT 10SM CLR 19/06 A2994 RMK AO2 SLP134 T01940056 55004
KAVP 141954Z 25010KT 10SM FEW060 19/06 A2993 RMK AO2 SLP134 T01940056